Hill City, MN (55748)

12:24 PM CDT on July 29, 2016 (GMT -0500)
Sunny Beach Road | | Change Station

Elev 1280 ft 47.16 °N, 93.52 °W | Updated 12 minutes ago

Clear
Clear
76.8 °F
Feels Like 78 °F
N
0.0
Wind Variable Wind from South

Today
High -- | Low -- °F
--% Chance of Precip.
Yesterday
High -- | Low -- °F
Precip. -- in
Pressure 30.14 in
Visibility 10.0 miles
Clouds Clear
Heat Index 78 °F
Dew Point 57 °F
Humidity 50%
Rainfall 0.00 in
Snow Depth Not available.
5:50 AM 8:50 PM
Waning Crescent, 20% visible
METAR KGPZ 291656Z AUTO VRB03KT 10SM CLR 22/12 A3013 RMK AO2 SLP204 T02220122
Pressure 30.14 in
Visibility 10.0 miles
Clouds Clear
Heat Index 78 °F
Dew Point 57 °F
Humidity 50%
Rainfall 0.00 in
Snow Depth Not available.
5:50 AM 8:50 PM
Waning Crescent, 20% visible
METAR KGPZ 291656Z AUTO VRB03KT 10SM CLR 22/12 A3013 RMK AO2 SLP204 T02220122

10-Day Weather Forecast

Almanac

Astronomy

Jul. 29, 2016 Rise Set
Actual Time
Civil Twilight
Nautical Twilight
Astronomical Twilight
Moon
Length of Visible Light
Length of Day
Tomorrow will be .
, % of the Moon is Illuminated

Today's Extremes

State Highs State Lows

Community

WunderPhotos

Upload Photos

1,928,381 photos uploaded!

WunderBlog® & News

Nearby

Air Quality

  Air Quality AQ Index Pollutant
Not available.

Snow Depth

Station Depth Elevation

Earthquake Activity

City Distance Mag. Time & Date
Minimum magnitude displayed is 2.5.

Coastal Water Temperatures

Place Temperature

Stations

Nearby Weather Stations

Station Location Temp. Windchill Dew Point Humidity Wind Precip. Elev Updated Type
                   

Watches & Warnings

There are currently no watches in effect.